sensor_id;sensor_type;location;lat;lon;timestamp;pressure;altitude;pressure_sealevel;temperature;humidity
16094;BME280;8151;47.824;12.092;2023-03-15T00:01:08;95620.19;;;5.78;73.79
16094;BME280;8151;47.824;12.092;2023-03-15T00:03:37;95612.78;;;5.73;73.82
16094;BME280;8151;47.824;12.092;2023-03-15T00:06:06;95619.31;;;5.69;73.86
16094;BME280;8151;47.824;12.092;2023-03-15T00:08:36;95613.41;;;5.67;74.13
16094;BME280;8151;47.824;12.092;2023-03-15T00:11:05;95618.50;;;5.69;74.01
16094;BME280;8151;47.824;12.092;2023-03-15T00:13:33;95618.00;;;5.65;73.97
16094;BME280;8151;47.824;12.092;2023-03-15T00:16:02;95620.97;;;5.70;73.31
16094;BME280;8151;47.824;12.092;2023-03-15T00:18:31;95614.44;;;5.75;73.50
16094;BME280;8151;47.824;12.092;2023-03-15T00:21:00;95609.22;;;5.83;73.48
16094;BME280;8151;47.824;12.092;2023-03-15T00:23:28;95610.41;;;5.88;73.31
16094;BME280;8151;47.824;12.092;2023-03-15T00:25:58;95606.13;;;5.87;73.13
16094;BME280;8151;47.824;12.092;2023-03-15T00:28:27;95595.66;;;5.87;72.88
16094;BME280;8151;47.824;12.092;2023-03-15T00:31:03;95588.44;;;5.89;73.24
16094;BME280;8151;47.824;12.092;2023-03-15T00:33:31;95585.63;;;5.91;73.36
16094;BME280;8151;47.824;12.092;2023-03-15T00:36:05;95603.19;;;5.90;73.28
16094;BME280;8151;47.824;12.092;2023-03-15T00:38:34;95603.69;;;5.94;73.36
16094;BME280;8151;47.824;12.092;2023-03-15T00:41:05;95610.31;;;5.98;73.12
16094;BME280;8151;47.824;12.092;2023-03-15T00:43:34;95607.38;;;6.01;72.92
16094;BME280;8151;47.824;12.092;2023-03-15T00:46:04;95604.75;;;6.01;73.29
16094;BME280;8151;47.824;12.092;2023-03-15T00:48:33;95607.69;;;5.98;73.19
16094;BME280;8151;47.824;12.092;2023-03-15T00:51:04;95601.75;;;5.96;73.17
16094;BME280;8151;47.824;12.092;2023-03-15T00:53:33;95611.22;;;5.89;73.27
16094;BME280;8151;47.824;12.092;2023-03-15T00:56:08;95603.94;;;5.75;73.45
16094;BME280;8151;47.824;12.092;2023-03-15T00:58:38;95595.38;;;5.64;73.19
16094;BME280;8151;47.824;12.092;2023-03-15T01:01:08;95602.41;;;5.64;73.25
16094;BME280;8151;47.824;12.092;2023-03-15T01:03:37;95602.41;;;5.64;73.03
16094;BME280;8151;47.824;12.092;2023-03-15T01:06:07;95606.97;;;5.62;72.85
16094;BME280;8151;47.824;12.092;2023-03-15T01:08:35;95604.88;;;5.65;73.12
16094;BME280;8151;47.824;12.092;2023-03-15T01:11:14;95592.25;;;5.69;72.76
16094;BME280;8151;47.824;12.092;2023-03-15T01:13:43;95592.41;;;5.67;72.40
16094;BME280;8151;47.824;12.092;2023-03-15T01:16:13;95586.50;;;5.65;73.27
16094;BME280;8151;47.824;12.092;2023-03-15T01:18:42;95586.34;;;5.67;72.74
16094;BME280;8151;47.824;12.092;2023-03-15T01:21:13;95574.38;;;5.64;73.08
16094;BME280;8151;47.824;12.092;2023-03-15T01:23:42;95564.53;;;5.66;72.76
16094;BME280;8151;47.824;12.092;2023-03-15T01:26:13;95561.28;;;5.72;73.31
16094;BME280;8151;47.824;12.092;2023-03-15T01:28:42;95560.34;;;5.82;72.91
16094;BME280;8151;47.824;12.092;2023-03-15T01:31:16;95545.75;;;5.87;73.04
16094;BME280;8151;47.824;12.092;2023-03-15T01:33:45;95530.88;;;5.96;73.04
16094;BME280;8151;47.824;12.092;2023-03-15T01:36:13;95528.91;;;6.06;72.69
16094;BME280;8151;47.824;12.092;2023-03-15T01:38:42;95543.38;;;6.10;72.93
16094;BME280;8151;47.824;12.092;2023-03-15T01:41:13;95551.75;;;6.06;73.12
16094;BME280;8151;47.824;12.092;2023-03-15T01:43:42;95562.38;;;5.96;73.36
16094;BME280;8151;47.824;12.092;2023-03-15T01:46:20;95566.56;;;5.89;73.12
16094;BME280;8151;47.824;12.092;2023-03-15T01:48:54;95553.31;;;5.90;73.76
16094;BME280;8151;47.824;12.092;2023-03-15T01:51:27;95553.31;;;5.90;73.50
16094;BME280;8151;47.824;12.092;2023-03-15T01:54:01;95569.38;;;5.87;73.13
16094;BME280;8151;47.824;12.092;2023-03-15T01:56:34;95613.50;;;5.84;73.73
16094;BME280;8151;47.824;12.092;2023-03-15T01:59:04;95634.63;;;5.74;73.60
16094;BME280;8151;47.824;12.092;2023-03-15T02:01:35;95674.34;;;5.53;74.15
16094;BME280;8151;47.824;12.092;2023-03-15T02:04:15;95690.16;;;4.99;75.10
16094;BME280;8151;47.824;12.092;2023-03-15T02:06:46;95687.34;;;4.65;76.23
16094;BME280;8151;47.824;12.092;2023-03-15T02:09:17;95677.94;;;4.54;75.99
16094;BME280;8151;47.824;12.092;2023-03-15T02:11:49;95671.41;;;4.40;76.60
16094;BME280;8151;47.824;12.092;2023-03-15T02:14:18;95652.94;;;4.32;76.84
16094;BME280;8151;47.824;12.092;2023-03-15T02:16:48;95674.13;;;4.21;77.25
16094;BME280;8151;47.824;12.092;2023-03-15T02:19:34;95689.34;;;4.07;77.22
16094;BME280;8151;47.824;12.092;2023-03-15T02:22:15;95692.09;;;4.06;77.45
16094;BME280;8151;47.824;12.092;2023-03-15T02:24:52;95706.84;;;3.97;77.20
16094;BME280;8151;47.824;12.092;2023-03-15T02:27:28;95702.50;;;3.88;77.88
16094;BME280;8151;47.824;12.092;2023-03-15T02:29:58;95710.91;;;3.82;77.67
16094;BME280;8151;47.824;12.092;2023-03-15T02:32:29;95721.91;;;3.85;77.56
16094;BME280;8151;47.824;12.092;2023-03-15T02:34:58;95717.09;;;3.90;77.85
16094;BME280;8151;47.824;12.092;2023-03-15T02:37:26;95715.38;;;3.99;77.55
16094;BME280;8151;47.824;12.092;2023-03-15T02:39:55;95721.44;;;4.09;77.67
16094;BME280;8151;47.824;12.092;2023-03-15T02:42:25;95717.78;;;4.20;77.53
16094;BME280;8151;47.824;12.092;2023-03-15T02:44:55;95728.94;;;4.22;77.54
16094;BME280;8151;47.824;12.092;2023-03-15T02:47:26;95731.28;;;4.25;77.66
16094;BME280;8151;47.824;12.092;2023-03-15T02:50:00;95741.91;;;4.24;77.28
16094;BME280;8151;47.824;12.092;2023-03-15T02:52:28;95742.16;;;4.30;77.40
16094;BME280;8151;47.824;12.092;2023-03-15T02:54:57;95751.50;;;4.33;77.70
16094;BME280;8151;47.824;12.092;2023-03-15T02:57:27;95753.00;;;4.36;77.50
16094;BME280;8151;47.824;12.092;2023-03-15T02:59:55;95760.72;;;4.37;77.42
16094;BME280;8151;47.824;12.092;2023-03-15T03:02:24;95759.06;;;4.36;77.65
16094;BME280;8151;47.824;12.092;2023-03-15T03:04:52;95766.25;;;4.34;77.52
16094;BME280;8151;47.824;12.092;2023-03-15T03:07:21;95762.81;;;4.33;77.39
16094;BME280;8151;47.824;12.092;2023-03-15T03:09:49;95767.13;;;4.25;77.83
16094;BME280;8151;47.824;12.092;2023-03-15T03:12:18;95768.22;;;4.22;77.90
16094;BME280;8151;47.824;12.092;2023-03-15T03:14:58;95777.88;;;4.22;77.92
16094;BME280;8151;47.824;12.092;2023-03-15T03:17:26;95781.06;;;4.16;78.16
16094;BME280;8151;47.824;12.092;2023-03-15T03:20:05;95783.97;;;4.12;78.32
16094;BME280;8151;47.824;12.092;2023-03-15T03:22:35;95788.38;;;4.12;77.96
16094;BME280;8151;47.824;12.092;2023-03-15T03:25:05;95792.78;;;4.11;78.39
16094;BME280;8151;47.824;12.092;2023-03-15T03:27:36;95794.75;;;4.09;78.24
16094;BME280;8151;47.824;12.092;2023-03-15T03:30:08;95806.47;;;4.05;78.16
16094;BME280;8151;47.824;12.092;2023-03-15T03:32:39;95807.97;;;4.08;78.24
16094;BME280;8151;47.824;12.092;2023-03-15T03:35:08;95813.19;;;4.08;78.12
16094;BME280;8151;47.824;12.092;2023-03-15T03:37:36;95823.13;;;4.04;78.03
16094;BME280;8151;47.824;12.092;2023-03-15T03:40:06;95828.25;;;3.96;78.65
16094;BME280;8151;47.824;12.092;2023-03-15T03:42:35;95835.81;;;3.89;78.31
16094;BME280;8151;47.824;12.092;2023-03-15T03:45:04;95834.16;;;3.88;78.76
16094;BME280;8151;47.824;12.092;2023-03-15T03:47:34;95851.69;;;3.88;78.90
16094;BME280;8151;47.824;12.092;2023-03-15T03:50:02;95851.38;;;3.91;78.73
16094;BME280;8151;47.824;12.092;2023-03-15T03:52:31;95864.47;;;3.91;78.74
16094;BME280;8151;47.824;12.092;2023-03-15T03:54:59;95870.50;;;3.91;79.00
16094;BME280;8151;47.824;12.092;2023-03-15T03:57:28;95867.63;;;3.85;79.10
16094;BME280;8151;47.824;12.092;2023-03-15T03:59:56;95887.88;;;3.83;79.24
16094;BME280;8151;47.824;12.092;2023-03-15T04:02:25;95915.84;;;3.82;79.12
16094;BME280;8151;47.824;12.092;2023-03-15T04:04:55;95920.66;;;3.77;79.24
16094;BME280;8151;47.824;12.092;2023-03-15T04:07:23;95925.63;;;3.70;79.30
16094;BME280;8151;47.824;12.092;2023-03-15T04:09:52;95933.47;;;3.61;79.48
16094;BME280;8151;47.824;12.092;2023-03-15T04:12:20;95946.25;;;3.54;79.77
16094;BME280;8151;47.824;12.092;2023-03-15T04:14:49;95952.72;;;3.50;79.65
16094;BME280;8151;47.824;12.092;2023-03-15T04:17:17;95968.66;;;3.47;79.61
16094;BME280;8151;47.824;12.092;2023-03-15T04:19:45;95978.44;;;3.45;79.75
16094;BME280;8151;47.824;12.092;2023-03-15T04:22:15;95983.66;;;3.45;79.44
16094;BME280;8151;47.824;12.092;2023-03-15T04:24:44;95997.28;;;3.39;79.65
16094;BME280;8151;47.824;12.092;2023-03-15T04:27:12;96001.25;;;3.33;79.58
16094;BME280;8151;47.824;12.092;2023-03-15T04:29:41;96010.28;;;3.19;79.55
16094;BME280;8151;47.824;12.092;2023-03-15T04:32:10;96022.34;;;3.10;79.84
16094;BME280;8151;47.824;12.092;2023-03-15T04:34:39;96025.56;;;2.93;79.89
16094;BME280;8151;47.824;12.092;2023-03-15T04:37:08;96038.13;;;2.78;80.19
16094;BME280;8151;47.824;12.092;2023-03-15T04:39:37;96047.06;;;2.75;80.22
16094;BME280;8151;47.824;12.092;2023-03-15T04:42:09;96048.88;;;2.85;80.08
16094;BME280;8151;47.824;12.092;2023-03-15T04:44:37;96058.00;;;2.90;79.78
16094;BME280;8151;47.824;12.092;2023-03-15T04:47:06;96056.66;;;2.75;79.88
16094;BME280;8151;47.824;12.092;2023-03-15T04:49:40;96064.69;;;2.62;80.10
16094;BME280;8151;47.824;12.092;2023-03-15T04:52:09;96068.81;;;2.65;80.16
16094;BME280;8151;47.824;12.092;2023-03-15T04:54:39;96079.78;;;2.59;80.38
16094;BME280;8151;47.824;12.092;2023-03-15T04:57:07;96088.94;;;2.53;80.51
16094;BME280;8151;47.824;12.092;2023-03-15T04:59:36;96084.13;;;2.48;80.16
16094;BME280;8151;47.824;12.092;2023-03-15T05:02:04;96090.41;;;2.46;80.31
16094;BME280;8151;47.824;12.092;2023-03-15T05:04:32;96095.63;;;2.46;80.38
16094;BME280;8151;47.824;12.092;2023-03-15T05:07:01;96094.56;;;2.48;80.43
16094;BME280;8151;47.824;12.092;2023-03-15T05:09:29;96106.66;;;2.49;80.48
16094;BME280;8151;47.824;12.092;2023-03-15T05:12:07;96115.69;;;2.45;80.39
16094;BME280;8151;47.824;12.092;2023-03-15T05:14:36;96119.50;;;2.41;80.74
16094;BME280;8151;47.824;12.092;2023-03-15T05:17:04;96118.19;;;2.47;80.53
16094;BME280;8151;47.824;12.092;2023-03-15T05:19:33;96131.13;;;2.48;80.59
16094;BME280;8151;47.824;12.092;2023-03-15T05:22:02;96131.34;;;2.45;80.50
16094;BME280;8151;47.824;12.092;2023-03-15T05:24:30;96133.84;;;2.47;80.45
16094;BME280;8151;47.824;12.092;2023-03-15T05:26:59;96141.22;;;2.42;80.75
16094;BME280;8151;47.824;12.092;2023-03-15T05:29:29;96149.31;;;2.39;81.12
16094;BME280;8151;47.824;12.092;2023-03-15T05:31:57;96163.78;;;2.43;81.00
16094;BME280;8151;47.824;12.092;2023-03-15T05:34:26;96177.75;;;2.53;80.71
16094;BME280;8151;47.824;12.092;2023-03-15T05:36:54;96174.41;;;2.62;80.51
16094;BME280;8151;47.824;12.092;2023-03-15T05:39:23;96186.03;;;2.58;80.47
16094;BME280;8151;47.824;12.092;2023-03-15T05:41:51;96190.41;;;2.58;80.79
16094;BME280;8151;47.824;12.092;2023-03-15T05:44:20;96187.38;;;2.52;80.69
16094;BME280;8151;47.824;12.092;2023-03-15T05:46:50;96197.09;;;2.50;80.81
16094;BME280;8151;47.824;12.092;2023-03-15T05:49:19;96208.00;;;2.44;80.79
16094;BME280;8151;47.824;12.092;2023-03-15T05:51:47;96217.19;;;2.39;81.01
16094;BME280;8151;47.824;12.092;2023-03-15T05:54:15;96214.81;;;2.35;81.16
16094;BME280;8151;47.824;12.092;2023-03-15T05:56:44;96225.34;;;2.45;81.04
16094;BME280;8151;47.824;12.092;2023-03-15T05:59:13;96230.34;;;2.48;81.18
16094;BME280;8151;47.824;12.092;2023-03-15T06:01:41;96242.81;;;2.56;80.90
16094;BME280;8151;47.824;12.092;2023-03-15T06:04:11;96248.13;;;2.54;80.87
16094;BME280;8151;47.824;12.092;2023-03-15T06:06:39;96247.66;;;2.49;80.92
16094;BME280;8151;47.824;12.092;2023-03-15T06:09:08;96254.78;;;2.47;81.06
16094;BME280;8151;47.824;12.092;2023-03-15T06:11:36;96256.47;;;2.37;81.15
16094;BME280;8151;47.824;12.092;2023-03-15T06:14:05;96258.72;;;2.30;81.40
16094;BME280;8151;47.824;12.092;2023-03-15T06:16:33;96273.56;;;2.30;81.22
16094;BME280;8151;47.824;12.092;2023-03-15T06:19:02;96275.47;;;2.28;81.27
16094;BME280;8151;47.824;12.092;2023-03-15T06:21:32;96285.41;;;2.23;81.17
16094;BME280;8151;47.824;12.092;2023-03-15T06:24:00;96298.34;;;2.13;81.30
16094;BME280;8151;47.824;12.092;2023-03-15T06:26:29;96295.50;;;2.05;81.51
16094;BME280;8151;47.824;12.092;2023-03-15T06:28:57;96290.06;;;2.08;81.58
16094;BME280;8151;47.824;12.092;2023-03-15T06:31:26;96304.97;;;2.17;81.33
16094;BME280;8151;47.824;12.092;2023-03-15T06:33:54;96305.34;;;2.24;81.37
16094;BME280;8151;47.824;12.092;2023-03-15T06:36:23;96307.84;;;2.25;81.21
16094;BME280;8151;47.824;12.092;2023-03-15T06:38:53;96313.41;;;2.21;81.26
16094;BME280;8151;47.824;12.092;2023-03-15T06:41:24;96313.91;;;2.26;81.22
16094;BME280;8151;47.824;12.092;2023-03-15T06:43:53;96321.16;;;2.33;81.06
16094;BME280;8151;47.824;12.092;2023-03-15T06:46:24;96328.50;;;2.40;80.93
16094;BME280;8151;47.824;12.092;2023-03-15T06:48:52;96329.91;;;2.44;80.73
16094;BME280;8151;47.824;12.092;2023-03-15T06:51:21;96329.59;;;2.48;80.79
16094;BME280;8151;47.824;12.092;2023-03-15T06:53:49;96331.94;;;2.51;80.93
16094;BME280;8151;47.824;12.092;2023-03-15T06:56:19;96339.53;;;2.54;80.69
16094;BME280;8151;47.824;12.092;2023-03-15T06:58:48;96337.88;;;2.53;80.84
16094;BME280;8151;47.824;12.092;2023-03-15T07:01:16;96345.81;;;2.52;80.75
16094;BME280;8151;47.824;12.092;2023-03-15T07:03:45;96340.97;;;2.47;80.92
16094;BME280;8151;47.824;12.092;2023-03-15T07:06:13;96351.91;;;2.52;80.96
16094;BME280;8151;47.824;12.092;2023-03-15T07:08:42;96355.09;;;2.56;80.76
16094;BME280;8151;47.824;12.092;2023-03-15T07:11:11;96354.97;;;2.58;80.82
16094;BME280;8151;47.824;12.092;2023-03-15T07:13:42;96363.78;;;2.68;80.65
16094;BME280;8151;47.824;12.092;2023-03-15T07:16:10;96356.50;;;2.71;80.79
16094;BME280;8151;47.824;12.092;2023-03-15T07:18:39;96363.50;;;2.82;80.53
16094;BME280;8151;47.824;12.092;2023-03-15T07:21:07;96365.28;;;2.93;80.16
16094;BME280;8151;47.824;12.092;2023-03-15T07:23:36;96364.09;;;2.97;80.25
16094;BME280;8151;47.824;12.092;2023-03-15T07:26:04;96366.44;;;3.00;80.19
16094;BME280;8151;47.824;12.092;2023-03-15T07:28:33;96369.91;;;3.01;80.25
16094;BME280;8151;47.824;12.092;2023-03-15T07:31:04;96377.88;;;3.10;80.06
16094;BME280;8151;47.824;12.092;2023-03-15T07:33:33;96379.59;;;3.21;79.97
16094;BME280;8151;47.824;12.092;2023-03-15T07:36:03;96385.09;;;3.18;79.94
16094;BME280;8151;47.824;12.092;2023-03-15T07:38:33;96383.91;;;3.22;79.93
16094;BME280;8151;47.824;12.092;2023-03-15T07:41:04;96384.09;;;3.30;80.01
16094;BME280;8151;47.824;12.092;2023-03-15T07:43:33;96399.56;;;3.33;79.91
16094;BME280;8151;47.824;12.092;2023-03-15T07:46:03;96385.19;;;3.28;79.76
16094;BME280;8151;47.824;12.092;2023-03-15T07:48:33;96395.41;;;3.20;79.87
16094;BME280;8151;47.824;12.092;2023-03-15T07:51:01;96404.34;;;3.17;80.27
16094;BME280;8151;47.824;12.092;2023-03-15T07:53:29;96401.72;;;3.17;80.18
16094;BME280;8151;47.824;12.092;2023-03-15T07:55:58;96401.22;;;3.23;80.20
16094;BME280;8151;47.824;12.092;2023-03-15T07:58:27;96405.34;;;3.37;80.13
16094;BME280;8151;47.824;12.092;2023-03-15T08:00:56;96401.91;;;3.48;79.80
16094;BME280;8151;47.824;12.092;2023-03-15T08:03:26;96394.75;;;3.50;79.75
16094;BME280;8151;47.824;12.092;2023-03-15T08:05:54;96395.56;;;3.50;79.92
16094;BME280;8151;47.824;12.092;2023-03-15T08:08:23;96398.19;;;3.50;79.63
16094;BME280;8151;47.824;12.092;2023-03-15T08:10:52;96395.78;;;3.59;80.07
16094;BME280;8151;47.824;12.092;2023-03-15T08:13:21;96400.13;;;3.81;79.43
16094;BME280;8151;47.824;12.092;2023-03-15T08:15:50;96396.13;;;3.98;79.10
16094;BME280;8151;47.824;12.092;2023-03-15T08:18:19;96394.50;;;4.06;78.98
16094;BME280;8151;47.824;12.092;2023-03-15T08:20:49;96389.94;;;4.20;79.01
16094;BME280;8151;47.824;12.092;2023-03-15T08:23:18;96385.63;;;4.19;78.82
16094;BME280;8151;47.824;12.092;2023-03-15T08:25:48;96388.06;;;4.10;79.35
16094;BME280;8151;47.824;12.092;2023-03-15T08:28:16;96388.41;;;3.96;79.10
16094;BME280;8151;47.824;12.092;2023-03-15T08:30:45;96387.22;;;3.89;79.66
16094;BME280;8151;47.824;12.092;2023-03-15T08:33:13;96377.47;;;3.91;79.37
16094;BME280;8151;47.824;12.092;2023-03-15T08:35:42;96385.31;;;3.91;79.42
16094;BME280;8151;47.824;12.092;2023-03-15T08:38:12;96388.75;;;3.91;79.40
16094;BME280;8151;47.824;12.092;2023-03-15T08:40:40;96384.81;;;3.97;79.07
16094;BME280;8151;47.824;12.092;2023-03-15T08:43:09;96381.19;;;4.09;79.11
16094;BME280;8151;47.824;12.092;2023-03-15T08:45:37;96386.72;;;4.16;78.35
16094;BME280;8151;47.824;12.092;2023-03-15T08:48:23;96385.50;;;4.20;78.53
16094;BME280;8151;47.824;12.092;2023-03-15T08:50:51;96373.44;;;4.29;78.86
16094;BME280;8151;47.824;12.092;2023-03-15T08:53:21;96380.25;;;4.41;78.51
16094;BME280;8151;47.824;12.092;2023-03-15T08:55:49;96372.28;;;4.43;77.95
16094;BME280;8151;47.824;12.092;2023-03-15T08:58:18;96374.19;;;4.41;78.08
16094;BME280;8151;47.824;12.092;2023-03-15T09:00:47;96372.97;;;4.45;78.34
16094;BME280;8151;47.824;12.092;2023-03-15T09:03:16;96374.91;;;4.43;78.00
16094;BME280;8151;47.824;12.092;2023-03-15T09:05:45;96372.97;;;4.45;77.93
16094;BME280;8151;47.824;12.092;2023-03-15T09:08:13;96372.41;;;4.41;78.28
16094;BME280;8151;47.824;12.092;2023-03-15T09:10:44;96371.59;;;4.41;78.20
16094;BME280;8151;47.824;12.092;2023-03-15T09:13:12;96370.94;;;4.48;77.69
16094;BME280;8151;47.824;12.092;2023-03-15T09:15:41;96363.69;;;4.62;78.00
16094;BME280;8151;47.824;12.092;2023-03-15T09:18:09;96368.03;;;4.82;77.42
16094;BME280;8151;47.824;12.092;2023-03-15T09:20:38;96365.06;;;4.97;77.38
16094;BME280;8151;47.824;12.092;2023-03-15T09:23:06;96365.69;;;5.20;77.19
16094;BME280;8151;47.824;12.092;2023-03-15T09:25:34;96356.88;;;5.40;76.39
16094;BME280;8151;47.824;12.092;2023-03-15T09:28:06;96358.25;;;5.54;76.43
16094;BME280;8151;47.824;12.092;2023-03-15T09:30:36;96359.38;;;5.71;76.40
16094;BME280;8151;47.824;12.092;2023-03-15T09:33:05;96369.75;;;5.82;75.89
16094;BME280;8151;47.824;12.092;2023-03-15T09:35:33;96363.38;;;5.85;76.06
16094;BME280;8151;47.824;12.092;2023-03-15T09:38:02;96362.25;;;5.78;75.23
16094;BME280;8151;47.824;12.092;2023-03-15T09:40:32;96360.75;;;5.65;75.75
16094;BME280;8151;47.824;12.092;2023-03-15T09:43:07;96363.94;;;5.59;75.50
16094;BME280;8151;47.824;12.092;2023-03-15T09:45:54;96362.13;;;5.69;75.21
16094;BME280;8151;47.824;12.092;2023-03-15T09:48:32;96360.31;;;5.60;74.60
16094;BME280;8151;47.824;12.092;2023-03-15T09:51:07;96364.19;;;5.46;74.09
16094;BME280;8151;47.824;12.092;2023-03-15T09:53:40;96366.78;;;5.37;74.41
16094;BME280;8151;47.824;12.092;2023-03-15T09:56:20;96360.03;;;5.44;73.97
16094;BME280;8151;47.824;12.092;2023-03-15T09:58:55;96368.63;;;5.65;73.54
16094;BME280;8151;47.824;12.092;2023-03-15T10:01:28;96369.88;;;5.81;72.56
16094;BME280;8151;47.824;12.092;2023-03-15T10:04:03;96366.97;;;5.84;72.39
16094;BME280;8151;47.824;12.092;2023-03-15T10:06:33;96367.38;;;5.79;71.92
16094;BME280;8151;47.824;12.092;2023-03-15T10:09:10;96369.44;;;5.76;72.17
16094;BME280;8151;47.824;12.092;2023-03-15T10:11:46;96371.25;;;5.85;72.21
16094;BME280;8151;47.824;12.092;2023-03-15T10:14:25;96366.31;;;6.01;71.14
16094;BME280;8151;47.824;12.092;2023-03-15T10:17:02;96374.75;;;6.15;71.02
16094;BME280;8151;47.824;12.092;2023-03-15T10:19:41;96375.00;;;6.11;71.11
16094;BME280;8151;47.824;12.092;2023-03-15T10:22:20;96369.75;;;6.02;70.74
16094;BME280;8151;47.824;12.092;2023-03-15T10:24:53;96379.25;;;5.93;70.20
16094;BME280;8151;47.824;12.092;2023-03-15T10:27:28;96370.00;;;5.89;70.49
16094;BME280;8151;47.824;12.092;2023-03-15T10:30:01;96370.69;;;5.91;70.17
16094;BME280;8151;47.824;12.092;2023-03-15T10:32:36;96375.00;;;6.11;69.23
16094;BME280;8151;47.824;12.092;2023-03-15T10:35:11;96372.91;;;6.35;68.34
16094;BME280;8151;47.824;12.092;2023-03-15T10:37:40;96371.88;;;6.45;68.52
16094;BME280;8151;47.824;12.092;2023-03-15T10:40:11;96365.59;;;6.66;67.68
16094;BME280;8151;47.824;12.092;2023-03-15T10:42:43;96370.84;;;6.76;67.41
16094;BME280;8151;47.824;12.092;2023-03-15T10:45:19;96368.94;;;6.68;67.85
16094;BME280;8151;47.824;12.092;2023-03-15T10:47:49;96376.25;;;6.64;67.67
16094;BME280;8151;47.824;12.092;2023-03-15T10:50:28;96370.09;;;6.56;67.78
16094;BME280;8151;47.824;12.092;2023-03-15T10:53:09;96371.19;;;6.43;68.25
16094;BME280;8151;47.824;12.092;2023-03-15T10:55:43;96369.28;;;6.36;68.24
16094;BME280;8151;47.824;12.092;2023-03-15T10:58:19;96374.09;;;6.50;67.53
16094;BME280;8151;47.824;12.092;2023-03-15T11:00:52;96363.09;;;6.74;67.07
16094;BME280;8151;47.824;12.092;2023-03-15T11:03:23;96361.91;;;6.96;65.86
16094;BME280;8151;47.824;12.092;2023-03-15T11:05:53;96356.41;;;7.07;65.44
16094;BME280;8151;47.824;12.092;2023-03-15T11:08:24;96364.31;;;7.07;65.16
16094;BME280;8151;47.824;12.092;2023-03-15T11:10:57;96359.41;;;6.95;65.44
16094;BME280;8151;47.824;12.092;2023-03-15T11:13:27;96367.06;;;6.78;65.43
16094;BME280;8151;47.824;12.092;2023-03-15T11:16:04;96361.59;;;6.72;65.68
16094;BME280;8151;47.824;12.092;2023-03-15T11:18:38;96359.53;;;6.65;65.73
16094;BME280;8151;47.824;12.092;2023-03-15T11:21:14;96364.09;;;6.63;65.60
16094;BME280;8151;47.824;12.092;2023-03-15T11:23:46;96364.81;;;6.56;65.58
16094;BME280;8151;47.824;12.092;2023-03-15T11:26:17;96362.91;;;6.48;65.36
16094;BME280;8151;47.824;12.092;2023-03-15T11:29:00;96355.75;;;6.40;65.09
16094;BME280;8151;47.824;12.092;2023-03-15T11:31:33;96362.09;;;6.38;64.27
16094;BME280;8151;47.824;12.092;2023-03-15T11:34:06;96356.81;;;6.38;64.34
16094;BME280;8151;47.824;12.092;2023-03-15T11:36:39;96363.22;;;6.35;64.31
16094;BME280;8151;47.824;12.092;2023-03-15T11:39:12;96360.31;;;6.28;63.66
16094;BME280;8151;47.824;12.092;2023-03-15T11:41:43;96355.75;;;6.40;63.45
16094;BME280;8151;47.824;12.092;2023-03-15T11:44:23;96354.81;;;6.69;62.53
16094;BME280;8151;47.824;12.092;2023-03-15T11:46:56;96348.16;;;7.02;61.51
16094;BME280;8151;47.824;12.092;2023-03-15T11:49:32;96352.03;;;7.26;61.62
16094;BME280;8151;47.824;12.092;2023-03-15T11:52:03;96354.13;;;7.22;61.75
16094;BME280;8151;47.824;12.092;2023-03-15T11:54:31;96343.72;;;7.03;61.51
16094;BME280;8151;47.824;12.092;2023-03-15T11:57:01;96339.50;;;6.92;61.90
16094;BME280;8151;47.824;12.092;2023-03-15T11:59:31;96337.06;;;6.81;61.89
16094;BME280;8151;47.824;12.092;2023-03-15T12:02:34;96332.47;;;6.83;61.05
16094;BME280;8151;47.824;12.092;2023-03-15T12:05:05;96332.38;;;7.02;61.26
16094;BME280;8151;47.824;12.092;2023-03-15T12:07:57;96325.69;;;7.08;60.26
16094;BME280;8151;47.824;12.092;2023-03-15T12:10:33;96319.09;;;7.22;60.01
16094;BME280;8151;47.824;12.092;2023-03-15T12:13:19;96308.59;;;7.40;59.36
16094;BME280;8151;47.824;12.092;2023-03-15T12:15:49;96308.28;;;7.61;59.27
16094;BME280;8151;47.824;12.092;2023-03-15T12:18:33;96306.78;;;7.76;58.76
16094;BME280;8151;47.824;12.092;2023-03-15T12:21:13;96304.50;;;7.99;58.04
16094;BME280;8151;47.824;12.092;2023-03-15T12:23:48;96297.59;;;8.24;58.45
16094;BME280;8151;47.824;12.092;2023-03-15T12:26:42;96299.84;;;8.19;57.33
16094;BME280;8151;47.824;12.092;2023-03-15T12:29:18;96297.00;;;8.13;58.05
16094;BME280;8151;47.824;12.092;2023-03-15T12:32:03;96299.22;;;8.25;58.02
16094;BME280;8151;47.824;12.092;2023-03-15T12:34:41;96295.66;;;8.35;57.46
16094;BME280;8151;47.824;12.092;2023-03-15T12:37:18;96292.34;;;8.33;57.76
16094;BME280;8151;47.824;12.092;2023-03-15T12:39:49;96290.13;;;8.20;58.18
16094;BME280;8151;47.824;12.092;2023-03-15T12:45:36;96280.09;;;7.97;58.27
16094;BME280;8151;47.824;12.092;2023-03-15T12:48:25;96270.66;;;8.13;57.19
16094;BME280;8151;47.824;12.092;2023-03-15T12:51:02;96272.41;;;8.30;57.55
16094;BME280;8151;47.824;12.092;2023-03-15T12:53:43;96268.13;;;8.55;56.11
16094;BME280;8151;47.824;12.092;2023-03-15T12:56:33;96270.84;;;8.80;54.93
16094;BME280;8151;47.824;12.092;2023-03-15T12:59:11;96271.50;;;8.82;56.02
16094;BME280;8151;47.824;12.092;2023-03-15T13:01:40;96279.63;;;8.54;56.47
16094;BME280;8151;47.824;12.092;2023-03-15T13:04:11;96285.94;;;8.35;56.04
16094;BME280;8151;47.824;12.092;2023-03-15T13:06:54;96275.06;;;8.30;55.78
16094;BME280;8151;47.824;12.092;2023-03-15T13:09:44;96275.16;;;8.46;54.51
16094;BME280;8151;47.824;12.092;2023-03-15T13:12:19;96270.00;;;8.71;54.72
16094;BME280;8151;47.824;12.092;2023-03-15T13:14:55;96260.34;;;8.96;54.08
16094;BME280;8151;47.824;12.092;2023-03-15T13:17:37;96280.34;;;9.07;53.81
16094;BME280;8151;47.824;12.092;2023-03-15T13:20:37;96273.03;;;8.93;52.96
16094;BME280;8151;47.824;12.092;2023-03-15T13:23:15;96276.03;;;8.98;53.70
16094;BME280;8151;47.824;12.092;2023-03-15T13:25:53;96280.53;;;9.22;53.66
16094;BME280;8151;47.824;12.092;2023-03-15T13:28:29;96271.50;;;9.41;53.54
16094;BME280;8151;47.824;12.092;2023-03-15T13:31:10;96272.16;;;9.59;52.30
16094;BME280;8151;47.824;12.092;2023-03-15T13:33:40;96278.09;;;9.61;53.00
16094;BME280;8151;47.824;12.092;2023-03-15T13:36:11;96277.44;;;9.35;52.95